Time;durP1;ratioP1;P1;durP2;ratioP2;P2;SDS_P1;SDS_P2;PMS_P1;PMS_P2;Temp;Humidity;BMP_temperature;BMP_pressure;BME280_temperature;BME280_humidity;BME280_pressure;Samples;Min_cycle;Max_cycle;Signal;HPM_P1;HPM_P2
2023/01/03 00:02:08;;;;;;;157.07;59.45;;;;;;;3.68;80.11;101388.41;1725658;83;21220;-52
2023/01/03 00:05:15;;;;;;;106.05;56.18;;;;;;;3.61;79.84;101381.71;1725974;82;21272;-53
2023/01/03 00:08:22;;;;;;;140.88;60.23;;;;;;;3.53;79.65;101370.55;1710234;83;21233;-52
2023/01/03 00:14:55;;;;;;;148.25;57.53;;;;;;;3.47;79.70;101384.52;1725505;83;21261;-53
2023/01/03 00:18:01;;;;;;;155.60;58.40;;;;;;;3.49;79.91;101377.64;1725694;83;21233;-52
2023/01/03 00:21:12;;;;;;;164.37;58.68;;;;;;;3.51;80.08;101377.91;1724851;82;21285;-52
2023/01/03 00:24:17;;;;;;;148.17;59.98;;;;;;;3.58;80.28;101382.41;1725654;83;21218;-52
2023/01/03 00:27:23;;;;;;;121.15;55.10;;;;;;;3.57;80.15;101370.70;1725723;83;21257;-52
2023/01/03 00:30:28;;;;;;;117.80;56.00;;;;;;;3.62;80.13;101373.08;1725393;83;21194;-53
2023/01/03 00:33:35;;;;;;;118.67;54.13;;;;;;;3.62;80.01;101369.02;1725657;83;21272;-53
2023/01/03 00:36:41;;;;;;;107.70;48.52;;;;;;;3.63;79.85;101366.20;1725645;83;21229;-53
2023/01/03 00:39:47;;;;;;;108.05;50.88;;;;;;;3.67;79.95;101354.20;1701867;83;21229;-53
2023/01/03 00:46:18;;;;;;;102.90;46.92;;;;;;;3.77;80.06;101354.41;1725605;83;21346;-53
2023/01/03 00:49:25;;;;;;;87.80;42.60;;;;;;;3.82;80.10;101349.55;1725394;83;21233;-54
2023/01/03 00:52:31;;;;;;;86.60;45.58;;;;;;;3.82;79.99;101343.62;1725590;83;21229;-52
2023/01/03 00:55:36;;;;;;;91.57;44.65;;;;;;;3.85;79.95;101338.02;1725621;83;21316;-52
2023/01/03 00:58:44;;;;;;;92.88;48.00;;;;;;;3.91;80.08;101332.15;1725651;83;21229;-52
2023/01/03 01:01:53;;;;;;;99.67;48.83;;;;;;;3.98;80.18;101325.80;1701703;83;21228;-53
2023/01/03 01:04:59;;;;;;;91.20;49.50;;;;;;;4.03;80.29;101328.54;1725598;83;21726;-53
2023/01/03 01:08:08;;;;;;;102.90;45.45;;;;;;;4.08;80.40;101314.66;1710789;83;21209;-52
2023/01/03 01:11:14;;;;;;;91.97;45.20;;;;;;;4.13;80.45;101318.77;1725150;83;21889;-54
2023/01/03 01:14:20;;;;;;;94.10;45.70;;;;;;;4.15;80.45;101303.28;1725658;83;21181;-53
2023/01/03 01:17:27;;;;;;;91.22;36.20;;;;;;;4.19;80.42;101296.64;1725729;82;21355;-53
2023/01/03 01:20:35;;;;;;;85.42;33.20;;;;;;;4.22;80.39;101303.19;1727199;82;21232;-52
2023/01/03 01:23:42;;;;;;;76.25;33.70;;;;;;;4.27;80.40;101295.59;1744038;82;21327;-52
2023/01/03 01:26:49;;;;;;;77.70;36.65;;;;;;;4.33;80.48;101282.92;1743878;82;21740;-52
2023/01/03 01:29:55;;;;;;;109.37;39.35;;;;;;;4.40;80.59;101271.14;1744006;82;21212;-52
2023/01/03 01:33:03;;;;;;;69.72;30.70;;;;;;;4.43;80.59;101268.20;1743971;82;21216;-53
2023/01/03 01:36:20;;;;;;;57.83;26.05;;;;;;;4.47;80.66;101261.07;1743906;82;21255;-53
2023/01/03 01:39:30;;;;;;;60.48;22.67;;;;;;;4.48;80.63;101254.69;1743896;82;21196;-53
2023/01/03 01:46:02;;;;;;;35.85;19.70;;;;;;;4.54;80.59;101239.30;1743788;82;21244;-53
2023/01/03 01:49:11;;;;;;;30.20;17.23;;;;;;;4.57;80.58;101230.06;1744100;82;21212;-52
2023/01/03 01:52:17;;;;;;;31.77;17.30;;;;;;;4.61;80.56;101235.64;1743829;82;21741;-53
2023/01/03 01:55:25;;;;;;;28.38;17.12;;;;;;;4.61;80.51;101233.77;1743892;82;21193;-52
2023/01/03 01:58:34;;;;;;;27.27;16.97;;;;;;;4.61;80.45;101233.77;1743862;82;21216;-52
2023/01/03 02:01:39;;;;;;;31.52;18.20;;;;;;;4.66;80.48;101231.22;1743843;82;21761;-52
2023/01/03 02:04:46;;;;;;;31.50;21.00;;;;;;;4.68;80.46;101225.19;1726916;82;21247;-52
2023/01/03 02:07:58;;;;;;;30.12;19.45;;;;;;;4.71;80.51;101226.30;1743774;82;21232;-51
2023/01/03 02:11:22;;;;;;;29.12;20.43;;;;;;;4.73;80.54;101222.96;1743806;82;21228;-52
2023/01/03 02:15:00;;;;;;;30.65;19.73;;;;;;;4.77;80.72;101215.86;1743694;82;21196;-52
2023/01/03 02:18:24;;;;;;;30.88;19.67;;;;;;;4.80;80.74;101222.39;1742670;82;21275;-52
2023/01/03 02:22:16;;;;;;;43.50;20.85;;;;;;;4.80;80.58;101212.91;1741293;82;21236;-52
2023/01/03 02:26:09;;;;;;;43.25;18.60;;;;;;;4.79;80.47;101211.16;1725635;83;21272;-52
2023/01/03 02:30:08;;;;;;;39.23;19.00;;;;;;;4.79;80.54;101204.88;1725495;82;21317;-53
2023/01/03 02:33:37;;;;;;;37.33;15.98;;;;;;;4.80;80.69;101201.18;1725353;83;21241;-52
2023/01/03 02:37:38;;;;;;;29.48;16.48;;;;;;;4.82;80.84;101198.70;1725560;82;21358;-53
2023/01/03 02:40:50;;;;;;;29.50;15.95;;;;;;;4.84;80.90;101192.67;1725720;83;21221;-51
2023/01/03 02:44:09;;;;;;;33.00;17.00;;;;;;;4.87;80.96;101190.23;1725627;83;21785;-52
2023/01/03 02:47:19;;;;;;;32.13;16.70;;;;;;;4.87;80.93;101187.52;1725682;83;21280;-52
2023/01/03 02:50:24;;;;;;;40.40;17.50;;;;;;;4.86;80.88;101176.28;1710223;83;21198;-52
2023/01/03 02:53:44;;;;;;;42.13;20.27;;;;;;;4.86;80.84;101170.38;1725704;83;21572;-52
2023/01/03 02:56:57;;;;;;;56.15;19.07;;;;;;;4.87;80.82;101175.31;1725576;83;21228;-51
2023/01/03 03:00:09;;;;;;;42.85;18.57;;;;;;;4.83;80.61;101173.81;1725818;83;21239;-52
2023/01/03 03:03:19;;;;;;;53.17;18.85;;;;;;;4.76;80.37;101158.50;1725657;83;21225;-52
2023/01/03 03:06:43;;;;;;;59.13;21.20;;;;;;;4.76;80.50;101158.50;1725961;83;21568;-52
2023/01/03 03:13:38;;;;;;;63.40;18.15;;;;;;;4.63;80.08;101148.23;1725630;83;21450;-53
2023/01/03 03:16:47;;;;;;;81.85;19.05;;;;;;;4.57;79.94;101147.36;1725734;83;21430;-52
2023/01/03 03:26:47;;;;;;;68.33;19.17;;;;;;;4.61;80.18;101148.36;1743976;82;21295;-52
2023/01/03 03:29:52;;;;;;;85.40;18.85;;;;;;;4.66;80.24;101147.16;1744317;81;21208;-51
2023/01/03 03:33:04;;;;;;;94.00;19.00;;;;;;;4.63;80.11;101144.69;1743884;82;21234;-52
2023/01/03 03:36:15;;;;;;;81.20;19.40;;;;;;;4.63;80.05;101141.97;1743986;82;21216;-52
2023/01/03 03:46:46;;;;;;;52.90;18.00;;;;;;;4.74;80.15;101139.28;1743923;82;21216;-52
2023/01/03 03:49:53;;;;;;;89.13;17.90;;;;;;;4.77;80.15;101145.82;1744163;82;21173;-52
2023/01/03 03:53:03;;;;;;;81.10;18.73;;;;;;;4.82;80.39;101134.12;1743864;82;21232;-51
2023/01/03 03:56:06;;;;;;;91.15;17.00;;;;;;;4.88;80.52;101130.44;1743981;82;21220;-52
2023/01/03 03:59:13;;;;;;;41.28;16.12;;;;;;;4.94;80.69;101132.66;1743939;82;21176;-53
2023/01/03 04:02:19;;;;;;;44.65;16.65;;;;;;;4.99;80.67;101126.86;1743957;82;21232;-52
2023/01/03 04:05:28;;;;;;;35.52;14.83;;;;;;;5.00;80.66;101119.08;1744036;82;21201;-53
2023/01/03 04:08:34;;;;;;;33.25;13.98;;;;;;;5.01;80.62;101121.67;1744011;82;21235;-51
2023/01/03 04:11:42;;;;;;;44.75;13.22;;;;;;;5.05;80.72;101115.03;1743882;82;21216;-50
2023/01/03 04:14:47;;;;;;;35.43;13.98;;;;;;;5.05;80.64;101115.03;1744754;82;21311;-52
2023/01/03 04:17:54;;;;;;;39.48;13.03;;;;;;;5.05;80.62;101116.38;1743850;82;21220;-52
2023/01/03 04:21:00;;;;;;;42.50;13.05;;;;;;;5.05;80.65;101115.03;1744034;82;21248;-52
2023/01/03 04:24:05;;;;;;;29.20;13.08;;;;;;;5.09;80.67;101126.50;1742540;82;21205;-52
2023/01/03 04:27:11;;;;;;;30.62;12.68;;;;;;;5.12;80.78;101126.25;1743912;82;21206;-52
2023/01/03 04:30:18;;;;;;;24.32;12.53;;;;;;;5.17;80.90;101121.33;1743941;82;21276;-53
2023/01/03 04:33:24;;;;;;;30.17;12.37;;;;;;;5.21;81.04;101119.59;1743921;82;21197;-54
2023/01/03 04:36:30;;;;;;;28.60;12.98;;;;;;;5.26;81.12;101124.64;1711186;82;21732;-54
2023/01/03 04:39:37;;;;;;;25.10;12.63;;;;;;;5.29;81.15;101118.48;1740314;82;21200;-54
2023/01/03 04:46:01;;;;;;;42.58;13.72;;;;;;;5.37;81.33;101101.56;1742706;82;21195;-55
2023/01/03 04:49:07;;;;;;;32.08;12.90;;;;;;;5.41;81.36;101097.59;1711593;84;21334;-53
2023/01/03 04:52:12;;;;;;;55.15;18.27;;;;;;;5.42;81.27;101093.91;1739942;82;21212;-53
2023/01/03 04:55:20;;;;;;;66.22;16.12;;;;;;;5.43;81.21;101091.55;1741307;82;21199;-54
2023/01/03 04:58:26;;;;;;;61.77;14.93;;;;;;;5.43;81.12;101087.48;1744285;82;21168;-55
2023/01/03 05:01:34;;;;;;;59.55;14.78;;;;;;;5.44;81.13;101097.38;1741806;81;21215;-54
2023/01/03 05:04:41;;;;;;;65.28;15.75;;;;;;;5.46;81.15;101100.80;1744024;82;21191;-55
2023/01/03 05:07:48;;;;;;;54.85;15.30;;;;;;;5.46;81.16;101103.52;1741189;81;21227;-53
2023/01/03 05:10:54;;;;;;;42.78;14.95;;;;;;;5.47;81.11;101105.27;1712686;83;21204;-54
2023/01/03 05:14:01;;;;;;;85.72;16.65;;;;;;;5.46;81.08;101105.75;1743785;82;21242;-54
2023/01/03 05:17:09;;;;;;;61.40;15.65;;;;;;;5.43;80.91;101102.41;1726813;82;21211;-54
2023/01/03 05:27:05;;;;;;;83.75;15.78;;;;;;;5.49;81.26;101078.34;1711998;82;21626;-54
2023/01/03 05:30:12;;;;;;;83.22;16.12;;;;;;;5.51;81.28;101069.58;1737442;82;21188;-54
2023/01/03 05:33:20;;;;;;;62.05;15.48;;;;;;;5.51;81.20;101072.78;1744356;82;21195;-55
2023/01/03 05:36:26;;;;;;;86.63;15.70;;;;;;;5.48;81.10;101068.48;1737419;81;21196;-54
2023/01/03 05:39:33;;;;;;;63.05;16.60;;;;;;;5.51;81.13;101061.92;1744420;82;21172;-54
2023/01/03 05:42:39;;;;;;;47.73;15.15;;;;;;;5.52;81.22;101062.27;1737313;81;21691;-53
2023/01/03 05:45:45;;;;;;;41.83;14.87;;;;;;;5.56;81.39;101056.97;1744430;82;21259;-52
2023/01/03 05:48:53;;;;;;;40.08;14.47;;;;;;;5.60;81.50;101061.14;1718481;82;21231;-55
2023/01/03 05:51:58;;;;;;;41.92;14.75;;;;;;;5.63;81.60;101054.97;1743532;82;21227;-54
2023/01/03 05:55:03;;;;;;;35.80;14.10;;;;;;;5.67;81.64;101053.73;1735727;82;21657;-54
2023/01/03 05:58:09;;;;;;;35.78;14.98;;;;;;;5.68;81.60;101054.09;1711249;83;21264;-54
2023/01/03 06:01:20;;;;;;;58.42;21.42;;;;;;;5.69;81.63;101056.33;1750035;81;21333;-54
2023/01/03 06:04:27;;;;;;;57.62;22.73;;;;;;;5.71;81.66;101056.55;1696972;84;21216;-54
2023/01/03 06:07:36;;;;;;;45.03;17.32;;;;;;;5.76;81.67;101061.59;1741409;82;21200;-59
2023/01/03 06:10:42;;;;;;;56.70;17.12;;;;;;;5.80;81.69;101054.92;1704350;82;21193;-59
2023/01/03 06:13:47;;;;;;;52.13;16.95;;;;;;;5.81;81.62;101055.28;1749100;80;21199;-59
2023/01/03 06:20:18;;;;;;;59.10;22.02;;;;;;;5.85;81.77;101039.98;1743572;80;21221;-59
2023/01/03 06:23:25;;;;;;;57.27;27.93;;;;;;;5.90;81.84;101033.66;1732324;83;21213;-60
2023/01/03 06:26:32;;;;;;;61.80;21.17;;;;;;;5.95;81.90;101038.70;1743027;80;21180;-59
2023/01/03 06:29:39;;;;;;;40.60;18.92;;;;;;;5.97;81.95;101038.95;1739344;81;21718;-58
2023/01/03 06:32:45;;;;;;;44.75;18.57;;;;;;;6.01;82.02;101040.89;1741627;82;21199;-59
2023/01/03 06:35:51;;;;;;;41.83;18.02;;;;;;;6.05;82.03;101043.73;1746338;82;21184;-59
2023/01/03 06:39:00;;;;;;;49.80;21.10;;;;;;;6.07;82.01;101047.19;1747106;82;21207;-60
2023/01/03 06:55:48;;;;;;;55.88;19.23;;;;;;;6.18;81.97;101042.18;1746637;82;21191;-60
2023/01/03 06:58:54;;;;;;;60.12;21.87;;;;;;;6.16;81.95;101036.00;1720900;82;21281;-60
2023/01/03 07:02:00;;;;;;;49.42;20.72;;;;;;;6.19;82.04;101025.73;1747356;80;21882;-59
2023/01/03 07:05:07;;;;;;;51.35;19.60;;;;;;;6.22;82.06;101018.67;1747202;82;21208;-60
2023/01/03 07:08:12;;;;;;;46.55;19.45;;;;;;;6.26;82.05;101006.55;1747202;80;21287;-59
2023/01/03 07:11:17;;;;;;;51.60;19.30;;;;;;;6.27;82.00;101001.47;1752630;80;21196;-59
2023/01/03 07:14:24;;;;;;;55.70;17.60;;;;;;;6.28;82.03;100988.75;1683113;85;21217;-60
2023/01/03 07:17:33;;;;;;;49.50;18.20;;;;;;;6.30;82.03;100984.88;1711634;82;21737;-60
2023/01/03 07:20:41;;;;;;;52.38;19.12;;;;;;;6.33;82.05;100987.33;1712046;84;21278;-60
2023/01/03 07:23:49;;;;;;;49.70;19.15;;;;;;;6.37;82.04;100988.81;1712244;84;21704;-59
2023/01/03 07:26:55;;;;;;;72.27;24.55;;;;;;;6.39;82.05;100994.95;1711916;82;21251;-59
2023/01/03 07:30:01;;;;;;;56.70;25.55;;;;;;;6.40;82.06;100992.61;1677476;85;21276;-59
2023/01/03 07:33:08;;;;;;;41.63;18.48;;;;;;;6.44;82.08;100991.33;1715728;82;21260;-59
2023/01/03 07:36:24;;;;;;;39.50;18.90;;;;;;;6.46;82.06;100996.15;1741221;80;21250;-59
2023/01/03 07:39:31;;;;;;;51.28;22.30;;;;;;;6.43;81.90;101005.94;1719711;82;21209;-59
2023/01/03 07:46:09;;;;;;;81.35;24.75;;;;;;;6.43;82.00;101000.98;1741897;81;21175;-58
2023/01/03 07:49:16;;;;;;;43.85;21.12;;;;;;;6.49;82.09;101015.40;1723147;81;21215;-58
2023/01/03 07:52:22;;;;;;;48.87;20.37;;;;;;;6.51;82.09;100998.45;1708042;82;21248;-59
2023/01/03 07:55:29;;;;;;;54.45;19.73;;;;;;;6.53;82.15;100995.98;1740685;82;21361;-57
2023/01/03 07:58:34;;;;;;;58.58;23.02;;;;;;;6.56;82.12;100983.95;1719362;82;21256;-60
2023/01/03 08:01:42;;;;;;;51.00;21.33;;;;;;;6.58;82.04;100983.33;1736747;81;21224;-60
2023/01/03 08:04:51;;;;;;;55.98;21.75;;;;;;;6.57;82.05;100974.30;1726100;82;21340;-59
2023/01/03 08:08:01;;;;;;;62.50;26.97;;;;;;;6.59;82.08;100970.09;1725851;81;21373;-59
2023/01/03 08:14:32;;;;;;;53.30;23.20;;;;;;;6.58;82.16;100963.77;1726475;82;21214;-59
2023/01/03 08:17:40;;;;;;;48.45;21.37;;;;;;;6.63;82.24;100951.15;1726479;81;21211;-59
2023/01/03 08:20:47;;;;;;;56.63;21.75;;;;;;;6.65;82.25;100956.80;1717884;81;21217;-59
2023/01/03 08:23:54;;;;;;;52.98;21.68;;;;;;;6.67;82.22;100949.37;1765467;81;21578;-59
2023/01/03 08:27:01;;;;;;;62.27;22.58;;;;;;;6.69;82.22;100951.44;1771467;81;21797;-58
2023/01/03 08:30:08;;;;;;;67.58;20.50;;;;;;;6.70;82.20;100946.86;1770027;81;21751;-59
2023/01/03 08:33:17;;;;;;;81.35;20.68;;;;;;;6.71;82.18;100952.16;1752958;79;21789;-57
2023/01/03 08:36:22;;;;;;;49.70;22.25;;;;;;;6.70;82.15;100942.30;1711993;82;21228;-59
2023/01/03 08:39:32;;;;;;;57.38;20.25;;;;;;;6.72;82.11;100938.95;1708197;83;21735;-59
2023/01/03 08:42:40;;;;;;;45.08;20.15;;;;;;;6.75;82.10;100935.95;1740374;82;21228;-58
2023/01/03 08:45:45;;;;;;;57.60;20.20;;;;;;;6.76;82.13;100940.38;1707429;84;21205;-57
2023/01/03 08:48:51;;;;;;;64.20;19.87;;;;;;;6.73;82.08;100931.63;1741045;82;21251;-58
2023/01/03 08:52:00;;;;;;;62.88;21.87;;;;;;;6.67;82.09;100939.86;1745872;81;21180;-58
2023/01/03 08:55:07;;;;;;;78.42;21.82;;;;;;;6.58;82.09;100941.17;1741088;81;21208;-59
2023/01/03 08:58:13;;;;;;;62.27;22.37;;;;;;;6.51;82.11;100946.30;1744604;81;21203;-57
2023/01/03 09:01:19;;;;;;;75.70;20.27;;;;;;;6.44;82.09;100946.98;1746882;81;21213;-59
2023/01/03 09:04:28;;;;;;;55.67;22.00;;;;;;;6.38;82.10;100935.27;1733136;82;21201;-59
2023/01/03 09:07:35;;;;;;;62.85;21.50;;;;;;;6.33;82.22;100926.68;1727509;82;21622;-59
2023/01/03 09:10:42;;;;;;;80.20;22.15;;;;;;;6.33;82.26;100926.68;1715447;82;21789;-59
2023/01/03 09:13:51;;;;;;;61.80;19.82;;;;;;;6.27;82.19;100912.24;1713808;83;21191;-60
2023/01/03 09:16:57;;;;;;;45.25;23.05;;;;;;;6.26;82.35;100902.38;1711149;82;21588;-60
2023/01/03 09:20:05;;;;;;;62.43;22.52;;;;;;;6.30;82.39;100901.09;1683198;85;21742;-58
2023/01/03 09:23:11;;;;;;;48.38;21.48;;;;;;;6.31;82.42;100907.75;1736201;81;21825;-59
2023/01/03 09:26:16;;;;;;;58.00;22.25;;;;;;;6.33;82.51;100907.13;1706115;82;21217;-59
2023/01/03 09:29:23;;;;;;;45.52;22.62;;;;;;;6.33;82.46;100911.20;1723842;81;21244;-58
2023/01/03 09:32:30;;;;;;;57.93;23.30;;;;;;;6.35;82.62;100911.94;1731804;82;21280;-59
2023/01/03 09:35:36;;;;;;;49.05;19.95;;;;;;;6.35;82.58;100906.98;1734367;82;21225;-60
2023/01/03 09:38:42;;;;;;;50.20;22.90;;;;;;;6.30;82.55;100905.17;1732267;82;21778;-59
2023/01/03 09:43:11;;;;;;;45.65;21.02;;;;;;;6.22;82.53;100897.70;1705368;83;21163;-58
2023/01/03 09:44:54;;;;;;;56.13;20.60;;;;;;;6.19;82.54;100899.34;1733842;82;21185;-58
2023/01/03 09:48:01;;;;;;;63.17;25.77;;;;;;;6.17;82.62;100882.30;1705894;82;21220;-59
2023/01/03 10:03:42;;;;;;;60.20;25.20;;;;;;;6.22;82.71;100869.16;1734870;82;21224;-59
2023/01/03 10:05:34;;;;;;;46.98;21.33;;;;;;;6.46;82.90;100835.70;1729924;81;21192;-56
2023/01/03 10:08:55;;;;;;;46.15;21.42;;;;;;;6.51;82.87;100832.56;1709240;82;21468;-55
2023/01/03 10:12:27;;;;;;;45.65;21.57;;;;;;;6.55;82.83;100861.22;1696026;82;21232;-55
2023/01/03 10:16:03;;;;;;;44.23;20.70;;;;;;;6.52;82.82;100854.66;1709999;83;21408;-55
2023/01/03 10:19:54;;;;;;;62.05;23.85;;;;;;;6.47;82.83;100846.92;1744038;82;21354;-54
2023/01/03 10:23:02;;;;;;;43.90;20.97;;;;;;;6.48;82.88;100856.83;1743716;81;21278;-55
2023/01/03 10:26:10;;;;;;;45.40;19.70;;;;;;;6.44;82.82;100857.25;1743752;82;21243;-54
2023/01/03 10:29:15;;;;;;;43.45;20.55;;;;;;;6.38;82.84;100860.00;1683255;83;21782;-55
2023/01/03 10:32:49;;;;;;;41.65;20.95;;;;;;;6.34;82.87;100861.78;1739267;81;21381;-55
2023/01/03 10:35:56;;;;;;;41.77;20.43;;;;;;;6.29;82.92;100858.61;1740851;82;21176;-55
2023/01/03 10:39:12;;;;;;;40.83;19.98;;;;;;;6.28;83.05;100856.38;1741261;82;21243;-55
2023/01/03 10:42:24;;;;;;;40.58;19.07;;;;;;;6.28;83.13;100853.66;1709382;84;21575;-56
2023/01/03 10:45:33;;;;;;;45.67;20.65;;;;;;;6.31;83.20;100850.66;1710873;82;21816;-56
2023/01/03 10:48:51;;;;;;;45.78;20.80;;;;;;;6.36;83.33;100857.08;1712901;82;21227;-56
2023/01/03 10:52:23;;;;;;;52.43;22.35;;;;;;;6.40;83.37;100848.50;1738116;82;21746;-56
2023/01/03 10:55:30;;;;;;;40.12;22.62;;;;;;;6.47;83.47;100827.89;1717324;83;21773;-57
2023/01/03 10:58:37;;;;;;;52.50;20.97;;;;;;;6.52;83.49;100833.78;1716398;83;21224;-53
2023/01/03 11:01:45;;;;;;;42.00;21.57;;;;;;;6.59;83.58;100836.80;1718346;81;21398;-52
2023/01/03 11:04:52;;;;;;;38.75;22.60;;;;;;;6.64;83.52;100829.09;1739927;82;21203;-51
2023/01/03 11:08:06;;;;;;;42.13;22.45;;;;;;;6.68;83.50;100831.88;1738806;82;21553;-51
2023/01/03 11:11:33;;;;;;;43.95;22.82;;;;;;;6.69;83.47;100812.69;1694094;82;21745;-51
2023/01/03 11:14:40;;;;;;;36.25;22.17;;;;;;;6.70;83.50;100807.63;1675677;84;21179;-50
2023/01/03 11:17:48;;;;;;;42.88;23.67;;;;;;;6.75;83.54;100805.84;1740929;82;21215;-51
2023/01/03 11:20:58;;;;;;;36.45;22.00;;;;;;;6.76;83.55;100804.34;1704770;82;21564;-51
2023/01/03 11:24:41;;;;;;;39.05;23.18;;;;;;;6.74;83.48;100801.41;1709007;84;21710;-51
2023/01/03 11:28:13;;;;;;;42.60;23.22;;;;;;;6.73;83.52;100837.27;1739712;81;21741;-50
2023/01/03 11:31:42;;;;;;;41.95;25.02;;;;;;;6.70;83.48;100825.80;1708610;84;21368;-52
2023/01/03 11:35:30;;;;;;;40.28;25.30;;;;;;;6.65;83.48;100812.63;1724900;82;21719;-50
2023/01/03 11:38:53;;;;;;;37.55;22.52;;;;;;;6.66;83.58;100812.98;1724467;82;21220;-52
2023/01/03 11:42:28;;;;;;;36.73;22.50;;;;;;;6.65;83.62;100811.27;1705203;82;21228;-50
2023/01/03 11:45:43;;;;;;;41.95;22.73;;;;;;;6.68;83.70;100805.55;1677318;83;21780;-52
2023/01/03 11:49:08;;;;;;;38.40;23.27;;;;;;;6.69;83.73;100808.61;1710175;84;21216;-52
2023/01/03 11:52:40;;;;;;;38.53;23.12;;;;;;;6.68;83.68;100821.87;1681144;84;21404;-51
2023/01/03 11:55:55;;;;;;;36.85;22.52;;;;;;;6.67;83.66;100822.88;1682642;85;21227;-51
2023/01/03 11:59:38;;;;;;;42.03;23.32;;;;;;;6.66;83.72;100817.06;1704783;84;21244;-51
2023/01/03 12:03:10;;;;;;;41.55;23.47;;;;;;;6.68;83.76;100804.19;1704521;82;21854;-50
2023/01/03 12:06:32;;;;;;;41.75;24.20;;;;;;;6.70;83.78;100806.27;1692962;82;21203;-50
2023/01/03 12:10:11;;;;;;;45.43;24.43;;;;;;;6.73;83.78;100809.20;1698710;84;21746;-50
2023/01/03 12:13:32;;;;;;;39.88;23.50;;;;;;;6.72;83.81;100811.08;1707643;83;21289;-52
2023/01/03 12:16:45;;;;;;;43.33;25.85;;;;;;;6.76;83.86;100809.78;1698652;83;21312;-50
2023/01/03 12:20:10;;;;;;;45.38;25.20;;;;;;;6.78;83.92;100824.11;1700670;84;21219;-51
2023/01/03 12:23:59;;;;;;;40.45;23.57;;;;;;;6.78;83.90;100821.39;1705884;82;21233;-58
2023/01/03 12:27:17;;;;;;;41.60;23.55;;;;;;;6.77;83.89;100823.73;1681996;84;21232;-60
2023/01/03 12:30:51;;;;;;;43.98;25.37;;;;;;;6.73;83.90;100825.52;1692373;83;21282;-50
2023/01/03 12:34:25;;;;;;;46.18;26.62;;;;;;;6.72;83.93;100819.24;1707233;81;21311;-52
2023/01/03 12:37:41;;;;;;;46.58;25.55;;;;;;;6.69;84.01;100818.13;1701852;82;21219;-51
2023/01/03 12:41:13;;;;;;;47.00;26.95;;;;;;;6.72;84.08;100836.05;1714176;83;21283;-50
2023/01/03 12:44:23;;;;;;;45.65;26.73;;;;;;;6.72;84.10;100841.50;1713286;83;21597;-49
2023/01/03 12:47:37;;;;;;;52.50;28.42;;;;;;;6.70;84.10;100844.36;1714213;82;21207;-51
2023/01/03 12:50:53;;;;;;;47.65;27.60;;;;;;;6.69;84.09;100840.42;1714161;83;21737;-50
2023/01/03 12:54:34;;;;;;;47.45;27.37;;;;;;;6.67;84.15;100845.13;1714311;82;21592;-50
2023/01/03 12:57:46;;;;;;;52.40;29.92;;;;;;;6.64;84.19;100842.20;1737557;80;21219;-51
2023/01/03 13:01:14;;;;;;;50.55;30.45;;;;;;;6.66;84.26;100850.22;1732191;82;21188;-51
2023/01/03 13:04:28;;;;;;;53.58;29.95;;;;;;;6.65;84.28;100845.77;1737154;81;21176;-49
2023/01/03 13:07:38;;;;;;;60.98;31.15;;;;;;;6.69;84.37;100850.78;1708568;82;21206;-50
2023/01/03 13:10:47;;;;;;;58.28;31.42;;;;;;;6.71;84.43;100851.50;1724673;82;21197;-50
2023/01/03 13:14:02;;;;;;;60.00;31.25;;;;;;;6.71;84.43;100855.59;1736542;82;21762;-49
2023/01/03 13:17:25;;;;;;;68.57;33.40;;;;;;;6.72;84.47;100851.89;1733354;81;21204;-49
2023/01/03 13:20:42;;;;;;;66.35;33.67;;;;;;;6.75;84.54;100858.41;1722678;83;21182;-50
2023/01/03 13:24:05;;;;;;;68.07;34.38;;;;;;;6.75;84.58;100855.69;1689871;82;21200;-51
2023/01/03 13:27:30;;;;;;;66.77;34.63;;;;;;;6.79;84.69;100855.75;1734487;81;21200;-49
2023/01/03 13:30:40;;;;;;;72.75;36.28;;;;;;;6.81;84.69;100861.92;1720681;82;21226;-50
2023/01/03 13:34:06;;;;;;;75.52;37.83;;;;;;;6.82;84.70;100868.23;1732822;81;21275;-50
2023/01/03 13:37:21;;;;;;;76.80;38.60;;;;;;;6.84;84.77;100868.44;1731632;82;21216;-49
2023/01/03 13:40:38;;;;;;;78.92;40.78;;;;;;;6.86;84.80;100874.61;1735416;82;21749;-50
2023/01/03 13:43:46;;;;;;;79.92;40.58;;;;;;;6.89;84.84;100875.69;1734545;81;21196;-51
2023/01/03 13:46:52;;;;;;;76.87;38.98;;;;;;;6.92;84.91;100875.41;1741458;82;21211;-49
2023/01/03 13:49:59;;;;;;;76.97;40.12;;;;;;;6.95;84.91;100897.38;1708559;84;21221;-49
2023/01/03 13:53:20;;;;;;;81.95;43.73;;;;;;;6.96;84.91;100895.04;1709131;84;21225;-49
2023/01/03 13:56:33;;;;;;;79.42;41.53;;;;;;;6.97;84.99;100903.55;1730578;82;21968;-50
2023/01/03 13:59:47;;;;;;;85.97;45.33;;;;;;;6.97;84.97;100913.95;1677609;85;21636;-52
2023/01/03 14:03:11;;;;;;;88.67;43.80;;;;;;;6.98;84.98;100916.15;1706161;82;21204;-50
2023/01/03 14:06:57;;;;;;;76.67;39.80;;;;;;;7.00;85.02;100916.39;1680534;84;21240;-50
2023/01/03 14:10:36;;;;;;;82.97;42.20;;;;;;;7.03;85.09;100910.66;1705830;82;21754;-50
2023/01/03 14:14:01;;;;;;;70.50;39.67;;;;;;;7.08;85.14;100911.11;1704858;83;21257;-50
2023/01/03 14:17:08;;;;;;;72.75;41.73;;;;;;;7.13;85.22;100911.55;1715531;82;21256;-49
2023/01/03 14:20:10;;;;;;;71.60;40.78;;;;;;;7.18;85.29;100915.20;1702771;84;21240;-49
2023/01/03 14:23:05;;;;;;;78.00;42.73;;;;;;;7.22;85.35;100921.58;1723285;83;21220;-51
2023/01/03 14:26:15;;;;;;;65.15;38.15;;;;;;;7.27;85.44;100909.77;1733379;82;21200;-50
2023/01/03 14:29:25;;;;;;;64.53;38.90;;;;;;;7.31;85.45;100912.55;1733904;82;21181;-52
2023/01/03 14:32:36;;;;;;;68.35;41.98;;;;;;;7.36;85.47;100914.84;1660685;85;21209;-52
2023/01/03 14:35:45;;;;;;;62.88;38.90;;;;;;;7.39;85.53;100911.83;1742204;81;21258;-54
2023/01/03 14:38:58;;;;;;;67.92;40.45;;;;;;;7.43;85.54;100906.47;1738987;81;21175;-54
2023/01/03 14:42:04;;;;;;;;;;;;;;;7.48;85.59;100908.27;1713669;82;21244;-53
2023/01/03 14:45:12;;;;;;;57.95;37.60;;;;;;;7.52;85.63;100903.75;1712095;82;20572;-53
2023/01/03 14:48:22;;;;;;;59.40;39.27;;;;;;;7.56;85.66;100913.34;1741128;81;21685;-53
2023/01/03 14:51:28;;;;;;;67.95;50.35;;;;;;;7.59;85.64;100914.94;1724382;81;21296;-54
2023/01/03 14:54:35;;;;;;;57.93;42.03;;;;;;;7.62;85.66;100914.64;1699971;83;21249;-54
2023/01/03 14:57:45;;;;;;;63.02;45.52;;;;;;;7.66;85.68;100914.70;1718306;82;21308;-54
2023/01/03 15:00:51;;;;;;;59.25;44.48;;;;;;;7.69;85.68;100913.05;1732639;82;21279;-54
2023/01/03 15:03:57;;;;;;;69.35;49.88;;;;;;;7.72;85.70;100922.33;1718702;82;21216;-56
2023/01/03 15:07:08;;;;;;;71.33;45.73;;;;;;;7.74;85.73;100924.38;1707609;83;21398;-55
2023/01/03 15:10:22;;;;;;;56.05;40.38;;;;;;;7.77;85.74;100917.80;1714871;82;21213;-54
2023/01/03 15:13:58;;;;;;;51.65;35.08;;;;;;;7.80;85.72;100920.23;1738977;82;21192;-54
2023/01/03 15:17:19;;;;;;;67.95;46.65;;;;;;;7.81;85.74;100920.58;1737700;82;21505;-54
2023/01/03 15:20:27;;;;;;;51.02;36.45;;;;;;;7.82;85.75;100928.61;1709296;84;21252;-54
2023/01/03 15:23:44;;;;;;;46.83;32.60;;;;;;;7.83;85.71;100937.16;1748542;80;21259;-54
2023/01/03 15:26:56;;;;;;;56.25;36.90;;;;;;;7.85;85.68;100928.84;1706594;84;21206;-54
2023/01/03 15:30:01;;;;;;;61.42;41.00;;;;;;;7.87;85.73;100937.70;1707445;84;21442;-53
2023/01/03 15:33:32;;;;;;;78.10;46.53;;;;;;;7.89;85.77;100941.16;1706924;84;21691;-54
2023/01/03 15:36:38;;;;;;;55.00;36.85;;;;;;;7.91;85.77;100940.02;1720140;80;21239;-52
2023/01/03 15:39:51;;;;;;;47.53;31.48;;;;;;;7.93;85.80;100942.08;1775414;80;21227;-51
2023/01/03 15:43:41;;;;;;;41.02;28.95;;;;;;;7.96;85.80;100945.87;1775507;80;21231;-53
2023/01/03 15:46:23;;;;;;;41.90;29.63;;;;;;;7.97;85.83;100955.79;1774530;80;21240;-51
2023/01/03 15:49:30;;;;;;;59.83;35.63;;;;;;;8.00;85.85;100954.63;1754628;80;21188;-51
2023/01/03 15:52:37;;;;;;;72.12;39.27;;;;;;;8.01;85.83;100957.20;1775684;80;21208;-51
2023/01/03 15:55:43;;;;;;;66.35;38.08;;;;;;;8.03;85.81;100961.15;1776082;80;21264;-52
2023/01/03 15:58:48;;;;;;;63.00;35.28;;;;;;;8.04;85.80;100958.80;1776679;80;21193;-52